Time;durP1;ratioP1;P1;durP2;ratioP2;P2;SDS_P1;SDS_P2;PMS_P1;PMS_P2;Temp;Humidity;BMP_temperature;BMP_pressure;BME280_temperature;BME280_humidity;BME280_pressure;Samples;Min_cycle;Max_cycle;Signal;HPM_P1;HPM_P2
2020/12/06 00:11:41;;;;;;;16.90;8.05;;;7.20;71.70;;;;;;2473893;55;20986;-84
2020/12/06 00:17:16;;;;;;;17.02;10.00;;;7.30;71.70;;;;;;2458706;55;20969;-84
2020/12/06 00:19:47;;;;;;;16.95;10.02;;;7.30;71.70;;;;;;2462004;55;21018;-84
2020/12/06 00:25:40;;;;;;;17.80;9.63;;;7.30;71.90;;;;;;2465696;55;21018;-84
2020/12/06 00:28:12;;;;;;;16.83;9.32;;;7.30;71.90;;;;;;2427537;55;20960;-84
2020/12/06 01:25:09;;;;;;;15.48;7.90;;;7.50;71.40;;;;;;2402703;56;21850;-84
2020/12/06 01:47:26;;;;;;;;;;;;;;;;;;;;;
2020/12/06 02:32:14;;;;;;;14.13;7.60;;;7.50;71.50;;;;;;2454325;54;21025;-84
2020/12/06 02:34:50;;;;;;;14.93;8.45;;;7.50;71.70;;;;;;2431369;55;21401;-85
2020/12/06 02:37:54;;;;;;;;;;;;;;;;;;;;;
2020/12/06 02:41:15;;;;;;;16.30;8.48;;;7.50;71.70;;;;;;2443289;55;20967;-84
2020/12/06 03:47:58;;;;;;;;;;;;;;;;;;;;;
2020/12/06 03:51:22;;;;;;;14.55;6.70;;;7.60;71.20;;;;;;2431177;55;21097;-83
2020/12/06 03:53:54;;;;;;;15.70;7.03;;;7.50;71.40;;;;;;2453335;55;21075;-84
2020/12/06 03:56:21;;;;;;;14.55;7.37;;;7.40;71.40;;;;;;2453813;55;20963;-85
2020/12/06 04:05:19;;;;;;;;;;;;;;;;;;;;;
2020/12/06 04:43:58;;;;;;;16.12;6.87;;;7.50;71.40;;;;;;2425127;55;21043;-84
2020/12/06 04:50:41;;;;;;;12.63;6.75;;;7.50;71.90;;;;;;2475759;54;21088;-84
2020/12/06 05:31:01;;;;;;;;;;;;;;;;;;;;;
2020/12/06 06:14:23;;;;;;;14.70;7.28;;;7.50;71.50;;;;;;2420402;55;20959;-84
2020/12/06 06:17:18;;;;;;;15.65;8.30;;;7.40;71.50;;;;;;2437727;55;20978;-85
2020/12/06 06:19:58;;;;;;;14.25;7.57;;;7.40;71.50;;;;;;2462944;55;20937;-87
2020/12/06 06:22:41;;;;;;;14.38;7.60;;;7.40;71.90;;;;;;2434758;55;21015;-84
2020/12/06 06:29:13;;;;;;;15.32;7.45;;;7.40;71.90;;;;;;2428298;54;21980;-87
2020/12/06 06:31:42;;;;;;;15.45;8.18;;;7.40;71.90;;;;;;2468218;54;21038;-85
2020/12/06 07:06:14;;;;;;;14.05;7.75;;;7.40;72.00;;;;;;2422478;55;20950;-85
2020/12/06 07:08:53;;;;;;;14.52;6.78;;;7.40;71.10;;;;;;2438447;55;21099;-83
2020/12/06 07:11:23;;;;;;;16.05;8.00;;;7.40;71.50;;;;;;2458433;54;20972;-85
2020/12/06 07:13:50;;;;;;;14.13;7.80;;;7.40;71.60;;;;;;2439497;54;21005;-85
2020/12/06 07:17:21;;;;;;;14.90;7.68;;;7.30;71.60;;;;;;2475165;54;20957;-86
2020/12/06 07:19:58;;;;;;;11.73;6.53;;;7.30;71.70;;;;;;2457552;54;22112;-88
2020/12/06 07:22:25;;;;;;;13.65;7.45;;;7.30;72.00;;;;;;2441549;55;21417;-86
2020/12/06 07:25:38;;;;;;;;;;;;;;;;;;;;;
2020/12/06 08:01:32;;;;;;;15.30;7.00;;;7.50;71.50;;;;;;2462215;55;21446;-84
2020/12/06 08:04:29;;;;;;;12.57;6.35;;;7.40;71.90;;;;;;2398200;56;21082;-84
2020/12/06 08:49:47;;;;;;;;;;;;;;;;;;;;;
2020/12/06 15:49:59;;;;;;;10.85;5.80;;;8.80;71.30;;;;;;2410741;56;20989;-72
2020/12/06 15:52:26;;;;;;;8.55;4.85;;;8.70;71.40;;;;;;2195839;56;20997;-72
2020/12/06 15:54:52;;;;;;;11.48;6.05;;;8.70;71.60;;;;;;2219503;56;21049;-72
2020/12/06 15:57:19;;;;;;;8.32;4.90;;;8.70;71.70;;;;;;2227027;55;21894;-72
2020/12/06 15:59:45;;;;;;;9.85;5.62;;;8.60;71.70;;;;;;2230218;55;20991;-72
2020/12/06 16:02:12;;;;;;;10.40;6.15;;;8.60;71.70;;;;;;2232767;55;20944;-72
2020/12/06 16:04:40;;;;;;;11.10;7.12;;;8.70;71.90;;;;;;2234733;56;21064;-72
2020/12/06 16:07:06;;;;;;;8.90;5.95;;;8.70;71.90;;;;;;2454754;56;20977;-72
2020/12/06 16:09:33;;;;;;;7.82;5.25;;;8.70;71.90;;;;;;2238555;56;20980;-72
2020/12/06 16:11:59;;;;;;;8.20;5.25;;;8.70;71.90;;;;;;2206454;57;21047;-72
2020/12/06 16:14:26;;;;;;;8.18;5.12;;;8.70;72.00;;;;;;2239376;56;21085;-72
2020/12/06 16:16:53;;;;;;;9.25;5.47;;;8.60;71.90;;;;;;2232740;56;21820;-72
2020/12/06 16:19:19;;;;;;;8.00;4.50;;;8.70;71.90;;;;;;2232851;56;21893;-73
2020/12/06 16:21:46;;;;;;;7.32;4.37;;;8.70;71.90;;;;;;2241980;56;20991;-72
2020/12/06 16:24:12;;;;;;;6.53;4.15;;;8.70;72.50;;;;;;2446085;55;20976;-72
2020/12/06 16:26:39;;;;;;;10.80;7.25;;;8.70;71.80;;;;;;2225259;56;21656;-72
2020/12/06 16:29:09;;;;;;;14.85;10.95;;;8.60;71.70;;;;;;2240538;56;21019;-72
2020/12/06 16:31:40;;;;;;;13.05;7.70;;;8.70;71.70;;;;;;2209306;55;21062;-71
2020/12/06 16:34:09;;;;;;;10.68;6.55;;;8.70;71.70;;;;;;2455481;55;20964;-72
2020/12/06 16:36:39;;;;;;;10.30;5.60;;;8.70;71.70;;;;;;2205372;57;21018;-72
2020/12/06 16:39:06;;;;;;;12.55;5.82;;;8.70;71.80;;;;;;2207247;57;21470;-72
2020/12/06 16:41:35;;;;;;;9.70;4.97;;;8.70;71.90;;;;;;2231185;56;20949;-72
2020/12/06 16:44:02;;;;;;;11.40;6.53;;;8.70;71.90;;;;;;2444319;55;21096;-72
2020/12/06 16:46:28;;;;;;;12.23;7.30;;;8.60;71.70;;;;;;2448131;55;20977;-72
2020/12/06 16:48:54;;;;;;;8.32;5.43;;;8.60;72.40;;;;;;2238419;56;20957;-72
2020/12/06 16:51:21;;;;;;;9.30;6.25;;;8.60;71.70;;;;;;2462157;55;21051;-72
2020/12/06 16:53:47;;;;;;;9.63;6.12;;;8.60;71.70;;;;;;2238312;56;21056;-72
2020/12/06 16:56:13;;;;;;;11.38;6.50;;;8.60;71.80;;;;;;2463319;56;20976;-72
2020/12/06 16:58:40;;;;;;;10.27;6.15;;;8.60;71.70;;;;;;2238531;56;21009;-72
2020/12/06 17:01:06;;;;;;;8.75;5.25;;;8.60;71.60;;;;;;2462443;56;21223;-72
2020/12/06 17:03:33;;;;;;;7.78;4.12;;;8.60;71.60;;;;;;2238646;56;21004;-72
2020/12/06 17:05:59;;;;;;;7.82;4.78;;;8.60;71.40;;;;;;2462492;55;21032;-72
2020/12/06 17:08:28;;;;;;;9.77;5.93;;;8.50;71.30;;;;;;2238119;56;21467;-72
2020/12/06 17:10:55;;;;;;;8.48;5.07;;;8.50;71.30;;;;;;2237938;56;21524;-72
2020/12/06 17:13:21;;;;;;;12.45;7.78;;;8.60;71.40;;;;;;2229445;56;20955;-72
2020/12/06 17:15:47;;;;;;;13.60;8.75;;;8.50;71.40;;;;;;2454894;55;20975;-72
2020/12/06 17:18:17;;;;;;;11.65;6.93;;;8.50;71.50;;;;;;2224287;55;21001;-72
2020/12/06 17:20:44;;;;;;;10.23;6.43;;;8.50;71.50;;;;;;2443149;56;20987;-72
2020/12/06 17:23:11;;;;;;;10.85;6.97;;;8.50;71.50;;;;;;2224505;55;20966;-73
2020/12/06 17:25:38;;;;;;;12.57;7.93;;;8.50;71.60;;;;;;2415752;56;21055;-73
2020/12/06 17:28:04;;;;;;;14.77;9.70;;;8.50;71.60;;;;;;2440289;55;20943;-73
2020/12/06 17:30:31;;;;;;;11.45;7.78;;;8.50;71.70;;;;;;2452766;55;20956;-72
2020/12/06 17:32:58;;;;;;;10.10;6.12;;;8.50;71.80;;;;;;2224331;56;21021;-72
2020/12/06 17:35:25;;;;;;;9.18;5.62;;;8.50;71.80;;;;;;2460394;55;20969;-73
2020/12/06 17:37:51;;;;;;;8.23;5.10;;;8.50;71.70;;;;;;2236039;56;20999;-73
2020/12/06 17:40:18;;;;;;;7.03;4.37;;;8.50;71.60;;;;;;2227194;56;20964;-72
2020/12/06 17:42:46;;;;;;;6.40;4.00;;;8.50;71.50;;;;;;2461091;55;21025;-72
2020/12/06 17:45:13;;;;;;;6.32;3.33;;;8.30;71.40;;;;;;2238382;56;20976;-73
2020/12/06 17:47:39;;;;;;;19.00;9.73;;;8.50;71.60;;;;;;2206671;57;20941;-72
2020/12/06 17:50:09;;;;;;;13.95;7.68;;;8.50;71.60;;;;;;2460944;55;20925;-73
2020/12/06 17:52:35;;;;;;;12.52;7.60;;;8.40;71.50;;;;;;2238754;56;20898;-72
2020/12/06 17:55:02;;;;;;;12.75;7.50;;;8.40;71.60;;;;;;2446758;55;20901;-73
2020/12/06 17:57:28;;;;;;;12.57;7.68;;;8.40;71.60;;;;;;2453175;56;21102;-72
2020/12/06 17:59:55;;;;;;;13.65;7.78;;;8.40;71.70;;;;;;2444252;55;21012;-72
2020/12/06 18:02:25;;;;;;;21.55;11.48;;;8.40;71.70;;;;;;2240848;56;20993;-72
2020/12/06 18:04:54;;;;;;;19.55;12.05;;;8.40;71.70;;;;;;2441094;55;21066;-72
2020/12/06 18:07:21;;;;;;;23.62;16.33;;;8.40;71.60;;;;;;2231355;55;21817;-72
2020/12/06 18:09:48;;;;;;;23.40;18.40;;;8.40;71.60;;;;;;2223253;56;21202;-72
2020/12/06 18:12:14;;;;;;;18.58;13.45;;;8.40;71.60;;;;;;2237425;56;21693;-72
2020/12/06 18:14:41;;;;;;;17.90;14.10;;;8.30;71.60;;;;;;2238458;56;21400;-73
2020/12/06 18:17:08;;;;;;;15.88;11.18;;;8.40;71.70;;;;;;2461292;55;21001;-72
2020/12/06 18:19:34;;;;;;;16.87;10.93;;;8.40;71.70;;;;;;2237923;56;20973;-72
2020/12/06 18:22:03;;;;;;;15.20;9.35;;;8.30;71.70;;;;;;2460319;55;20964;-73
2020/12/06 18:24:29;;;;;;;11.15;7.60;;;8.40;71.80;;;;;;2228827;56;21060;-73
2020/12/06 18:27:00;;;;;;;12.88;7.47;;;8.30;71.80;;;;;;2236452;56;21384;-72
2020/12/06 18:29:26;;;;;;;11.40;7.75;;;8.30;71.80;;;;;;2237698;56;20984;-73
2020/12/06 18:31:53;;;;;;;10.68;7.37;;;8.30;71.90;;;;;;2238247;56;20960;-72
2020/12/06 18:34:20;;;;;;;11.40;7.20;;;8.30;71.90;;;;;;2454466;55;20990;-72
2020/12/06 18:36:46;;;;;;;9.88;6.28;;;8.30;71.90;;;;;;2453188;55;21039;-73
2020/12/06 18:39:13;;;;;;;11.20;6.78;;;8.30;71.90;;;;;;2237885;56;20968;-73
2020/12/06 18:41:39;;;;;;;9.13;6.20;;;8.30;71.90;;;;;;2237502;56;21048;-72
2020/12/06 18:44:06;;;;;;;9.63;6.18;;;8.40;72.00;;;;;;2237568;56;20988;-72
2020/12/06 18:46:32;;;;;;;12.48;7.75;;;8.40;72.00;;;;;;2238028;56;21500;-72
2020/12/06 18:48:59;;;;;;;9.57;6.15;;;8.30;71.90;;;;;;2460060;56;21049;-72
2020/12/06 18:51:26;;;;;;;12.35;7.03;;;8.30;71.90;;;;;;2401945;55;2546824;-72
2020/12/06 18:53:53;;;;;;;10.98;6.22;;;8.40;72.10;;;;;;2440037;55;21471;-72
2020/12/06 18:56:19;;;;;;;13.62;7.75;;;8.40;72.10;;;;;;2223939;56;20954;-73
2020/12/06 18:58:46;;;;;;;12.45;7.78;;;8.30;71.90;;;;;;2238054;56;21013;-73
2020/12/06 19:01:14;;;;;;;13.02;8.32;;;8.30;71.90;;;;;;2228142;56;20958;-73
2020/12/06 19:03:41;;;;;;;13.62;8.15;;;8.40;71.90;;;;;;2459720;55;20957;-73
2020/12/06 19:06:07;;;;;;;12.88;7.43;;;8.30;71.80;;;;;;2239114;56;20980;-74
2020/12/06 19:08:33;;;;;;;11.15;6.68;;;8.30;71.80;;;;;;2229137;55;20943;-73
2020/12/06 19:11:00;;;;;;;11.07;6.72;;;8.30;71.90;;;;;;2226957;55;20969;-73
2020/12/06 19:13:27;;;;;;;10.43;6.90;;;8.30;71.90;;;;;;2230681;56;20985;-73
2020/12/06 19:15:54;;;;;;;12.82;7.72;;;8.30;72.00;;;;;;2462068;55;20948;-73
2020/12/06 19:18:22;;;;;;;10.93;7.07;;;8.30;72.00;;;;;;2443955;56;20999;-73
2020/12/06 19:20:48;;;;;;;10.75;7.25;;;8.30;71.90;;;;;;2234940;56;21670;-73
2020/12/06 19:23:15;;;;;;;12.25;7.43;;;8.30;71.90;;;;;;2451235;56;21319;-73
2020/12/06 19:25:42;;;;;;;13.70;8.27;;;8.30;71.80;;;;;;2232236;56;21075;-73
2020/12/06 19:28:08;;;;;;;13.30;8.13;;;8.30;71.60;;;;;;2233178;56;21013;-74
2020/12/06 19:30:34;;;;;;;13.82;8.05;;;8.30;71.60;;;;;;2461839;55;20945;-74
2020/12/06 19:33:01;;;;;;;12.15;7.40;;;8.30;71.60;;;;;;2237879;56;21760;-73
2020/12/06 19:35:28;;;;;;;12.23;7.25;;;8.30;71.60;;;;;;2237909;56;21008;-74
2020/12/06 19:37:55;;;;;;;12.88;8.00;;;8.30;71.70;;;;;;2445855;55;21484;-74
2020/12/06 19:40:21;;;;;;;10.82;7.12;;;8.20;71.70;;;;;;2237655;56;20948;-75
2020/12/06 19:42:48;;;;;;;12.73;7.35;;;8.20;71.70;;;;;;2462098;55;21104;-73
2020/12/06 19:45:14;;;;;;;9.75;6.00;;;8.20;71.70;;;;;;2238804;56;20980;-74
2020/12/06 19:47:41;;;;;;;10.63;6.28;;;8.20;71.80;;;;;;2462213;56;21334;-74
2020/12/06 19:50:08;;;;;;;9.15;5.30;;;8.30;71.90;;;;;;2227226;56;21818;-74
2020/12/06 19:52:34;;;;;;;9.60;5.80;;;8.20;71.90;;;;;;2459998;56;21089;-73
2020/12/06 19:55:06;;;;;;;10.68;6.00;;;8.20;72.00;;;;;;2461024;55;20977;-74
2020/12/06 19:57:34;;;;;;;8.57;5.32;;;8.20;72.00;;;;;;2238450;56;20960;-74
2020/12/06 20:00:00;;;;;;;9.15;5.22;;;8.20;72.00;;;;;;2237682;56;20988;-73
2020/12/06 20:02:26;;;;;;;8.82;5.70;;;8.20;72.10;;;;;;2460830;56;21044;-73
2020/12/06 20:04:54;;;;;;;9.77;6.07;;;8.20;72.00;;;;;;2230885;56;20999;-73
2020/12/06 20:07:26;;;;;;;8.13;4.85;;;8.20;72.00;;;;;;2455431;55;20961;-73
2020/12/06 20:09:54;;;;;;;10.32;6.03;;;8.20;72.00;;;;;;2236459;56;21020;-73
2020/12/06 20:12:20;;;;;;;8.65;4.90;;;8.30;71.90;;;;;;2455194;55;21011;-73
2020/12/06 20:14:49;;;;;;;7.78;4.85;;;8.20;71.80;;;;;;2228720;56;21387;-73
2020/12/06 20:17:23;;;;;;;7.65;4.90;;;8.20;71.80;;;;;;2444305;55;20995;-73
2020/12/06 20:19:50;;;;;;;10.63;6.05;;;8.20;71.70;;;;;;2237632;56;21331;-73
2020/12/06 20:22:16;;;;;;;9.50;5.35;;;8.20;71.70;;;;;;2446423;55;21767;-73
2020/12/06 20:24:42;;;;;;;11.12;6.07;;;8.20;71.70;;;;;;2228582;55;21014;-73
2020/12/06 20:27:13;;;;;;;10.15;5.30;;;8.20;71.60;;;;;;2461417;55;21696;-74
2020/12/06 20:29:39;;;;;;;8.40;5.28;;;8.20;71.60;;;;;;2237066;56;20964;-73
2020/12/06 20:32:07;;;;;;;7.62;4.50;;;8.20;71.60;;;;;;2448270;55;21968;-73
2020/12/06 20:34:34;;;;;;;10.95;6.15;;;8.20;71.70;;;;;;2236293;55;21135;-74
2020/12/06 20:37:00;;;;;;;10.93;5.57;;;8.20;71.70;;;;;;2437203;55;21012;-73
2020/12/06 20:39:27;;;;;;;11.23;5.85;;;8.20;71.70;;;;;;2227756;56;21001;-74
2020/12/06 20:41:54;;;;;;;8.73;4.70;;;8.20;71.80;;;;;;2458483;55;20990;-73
2020/12/06 20:44:21;;;;;;;8.93;4.15;;;8.10;71.70;;;;;;2225842;55;20986;-74
2020/12/06 20:46:48;;;;;;;6.60;3.87;;;8.20;71.80;;;;;;2461698;55;21016;-74
2020/12/06 20:49:14;;;;;;;6.30;3.22;;;8.20;71.80;;;;;;2239770;56;20984;-73
2020/12/06 20:51:41;;;;;;;11.57;5.18;;;8.10;71.80;;;;;;2441628;55;21435;-74
2020/12/06 20:54:08;;;;;;;9.50;4.90;;;8.10;71.90;;;;;;2224365;55;21007;-74
2020/12/06 20:56:35;;;;;;;8.88;4.60;;;8.10;71.90;;;;;;2458196;55;21034;-73
2020/12/06 20:59:01;;;;;;;8.82;5.00;;;8.20;72.00;;;;;;2224347;55;20938;-73
2020/12/06 21:01:31;;;;;;;7.53;4.20;;;8.20;72.00;;;;;;2237206;55;21008;-74
2020/12/06 21:04:12;;;;;;;7.25;4.25;;;8.20;71.90;;;;;;2449216;56;20971;-73
2020/12/06 21:06:41;;;;;;;6.80;4.05;;;8.20;71.70;;;;;;2457814;55;20925;-75
2020/12/06 21:09:07;;;;;;;6.87;3.80;;;8.20;71.70;;;;;;2460284;55;21504;-73
2020/12/06 21:11:34;;;;;;;7.07;4.10;;;8.20;71.70;;;;;;2439595;55;21030;-74
2020/12/06 21:14:01;;;;;;;6.53;3.75;;;8.20;71.70;;;;;;2451815;55;20981;-74
2020/12/06 21:16:27;;;;;;;8.15;4.40;;;8.20;71.80;;;;;;2446566;56;21953;-74
2020/12/06 21:18:54;;;;;;;8.68;4.45;;;8.20;71.70;;;;;;2459700;55;21043;-74
2020/12/06 21:21:21;;;;;;;7.72;3.80;;;8.20;71.80;;;;;;2455042;55;21835;-74
2020/12/06 21:23:49;;;;;;;8.63;4.45;;;8.20;71.80;;;;;;2228021;56;20965;-73
2020/12/06 21:26:17;;;;;;;7.07;3.92;;;8.20;71.80;;;;;;2239855;56;21038;-74
2020/12/06 21:28:44;;;;;;;6.30;3.67;;;8.10;71.70;;;;;;2224106;55;21028;-74
2020/12/06 21:31:13;;;;;;;5.50;3.35;;;8.20;71.80;;;;;;2462027;55;20993;-74
2020/12/06 21:33:40;;;;;;;7.10;4.05;;;8.20;71.70;;;;;;2205674;57;20969;-74
2020/12/06 21:36:07;;;;;;;6.65;3.03;;;8.10;71.70;;;;;;2458894;56;20995;-74
2020/12/06 21:38:33;;;;;;;5.93;3.05;;;8.20;71.70;;;;;;2226918;56;20989;-74
2020/12/06 21:41:00;;;;;;;5.62;3.33;;;8.10;71.70;;;;;;2227912;56;21031;-74
2020/12/06 21:43:26;;;;;;;6.50;3.45;;;8.10;71.70;;;;;;2225043;55;20977;-74
2020/12/06 21:46:01;;;;;;;4.90;2.85;;;8.10;71.70;;;;;;2237568;56;21000;-73
2020/12/06 21:48:28;;;;;;;5.65;3.03;;;8.10;71.60;;;;;;2238252;56;22145;-75
2020/12/06 21:50:55;;;;;;;5.22;2.80;;;8.10;71.60;;;;;;2238456;56;20996;-74
2020/12/06 21:53:21;;;;;;;4.85;2.85;;;8.10;71.50;;;;;;2237706;56;20972;-74
2020/12/06 21:55:48;;;;;;;5.32;2.85;;;8.10;71.60;;;;;;2460924;56;20948;-74
2020/12/06 21:58:14;;;;;;;4.00;2.47;;;8.10;71.70;;;;;;2454518;56;21031;-74
2020/12/06 22:00:41;;;;;;;4.62;2.37;;;8.10;71.60;;;;;;2454010;56;21066;-74
2020/12/06 22:03:07;;;;;;;9.25;5.20;;;8.10;71.70;;;;;;2237682;55;21033;-74
2020/12/06 22:05:34;;;;;;;14.77;7.80;;;8.10;71.70;;;;;;2462187;55;21068;-75
2020/12/06 22:08:01;;;;;;;10.80;6.10;;;8.10;71.70;;;;;;2232687;56;20978;-74
2020/12/06 22:10:27;;;;;;;10.20;5.60;;;8.10;71.70;;;;;;2445522;56;21601;-74
2020/12/06 22:13:05;;;;;;;9.43;5.40;;;8.10;71.80;;;;;;2454271;55;21007;-74
2020/12/06 22:15:32;;;;;;;6.07;3.45;;;8.10;71.70;;;;;;2238348;56;21008;-75
2020/12/06 22:17:59;;;;;;;5.10;2.58;;;8.10;71.70;;;;;;2237773;56;21041;-74
2020/12/06 22:20:25;;;;;;;4.68;2.90;;;8.10;71.60;;;;;;2237178;56;21528;-74
2020/12/06 22:22:57;;;;;;;4.87;2.50;;;8.10;71.60;;;;;;2238195;56;20984;-74
2020/12/06 22:25:24;;;;;;;4.65;2.15;;;8.10;71.40;;;;;;2445614;55;21011;-75
2020/12/06 22:27:51;;;;;;;4.25;2.28;;;8.10;71.40;;;;;;2230499;56;21043;-74
2020/12/06 22:30:18;;;;;;;4.80;2.12;;;8.10;71.50;;;;;;2226316;56;21405;-74
2020/12/06 22:32:44;;;;;;;3.12;1.73;;;8.10;71.50;;;;;;2240347;56;21012;-75
2020/12/06 22:35:11;;;;;;;3.47;1.70;;;8.00;71.40;;;;;;2454315;56;21049;-75
2020/12/06 22:37:37;;;;;;;3.60;1.75;;;8.10;71.40;;;;;;2455036;55;21053;-74
2020/12/06 22:40:03;;;;;;;3.08;1.45;;;8.00;71.30;;;;;;2464046;55;21091;-74
2020/12/06 22:42:32;;;;;;;3.67;1.48;;;8.00;71.30;;;;;;2435426;55;21018;-74
2020/12/06 22:44:59;;;;;;;2.92;1.55;;;8.00;71.30;;;;;;2442948;55;20965;-74
2020/12/06 22:47:26;;;;;;;2.92;1.40;;;8.00;71.40;;;;;;2462333;55;21004;-74
2020/12/06 22:49:58;;;;;;;2.53;1.15;;;8.00;71.30;;;;;;2448095;55;20987;-75
2020/12/06 22:52:26;;;;;;;2.92;1.17;;;8.00;71.20;;;;;;2438627;55;21040;-74
2020/12/06 22:54:53;;;;;;;2.78;1.27;;;8.00;71.30;;;;;;2452258;55;21504;-74
2020/12/06 22:57:19;;;;;;;3.05;1.42;;;8.00;71.30;;;;;;2237925;56;21028;-75
2020/12/06 22:59:45;;;;;;;2.87;1.23;;;7.90;71.20;;;;;;2233142;56;21023;-74
2020/12/06 23:02:14;;;;;;;2.90;1.20;;;7.90;71.20;;;;;;2222946;55;21755;-75
2020/12/06 23:04:40;;;;;;;2.65;1.00;;;7.90;71.20;;;;;;2237929;56;21028;-74
2020/12/06 23:07:07;;;;;;;2.47;0.90;;;7.90;71.20;;;;;;2237506;56;20980;-74
2020/12/06 23:09:34;;;;;;;3.85;1.00;;;7.90;71.20;;;;;;2234665;55;21428;-74
2020/12/06 23:12:00;;;;;;;3.97;1.62;;;7.90;71.20;;;;;;2227216;56;21039;-74
2020/12/06 23:14:28;;;;;;;8.55;4.12;;;7.90;71.20;;;;;;2229540;56;21875;-74
2020/12/06 23:16:54;;;;;;;13.02;6.07;;;7.90;71.10;;;;;;2232225;56;21031;-74
2020/12/06 23:19:21;;;;;;;8.00;3.78;;;7.90;71.00;;;;;;2232325;56;20972;-74
2020/12/06 23:21:47;;;;;;;6.03;2.58;;;7.80;70.80;;;;;;2237573;56;20933;-74
2020/12/06 23:24:17;;;;;;;4.47;1.95;;;7.80;71.10;;;;;;2461129;55;21047;-74
2020/12/06 23:26:49;;;;;;;3.92;1.65;;;7.80;70.80;;;;;;2238847;56;21180;-75
2020/12/06 23:29:15;;;;;;;3.55;1.70;;;7.80;70.60;;;;;;2460736;55;20968;-74
2020/12/06 23:31:42;;;;;;;2.97;1.25;;;7.80;70.60;;;;;;2461581;55;21084;-75
2020/12/06 23:34:09;;;;;;;3.42;1.40;;;7.70;70.50;;;;;;2237717;56;20957;-74
2020/12/06 23:36:35;;;;;;;3.85;1.67;;;7.70;70.50;;;;;;2458668;55;21503;-74
2020/12/06 23:39:02;;;;;;;5.40;2.25;;;7.70;70.50;;;;;;2226326;56;21545;-75
2020/12/06 23:41:28;;;;;;;3.72;1.80;;;7.60;70.40;;;;;;2459327;55;21765;-74
2020/12/06 23:43:54;;;;;;;3.28;1.50;;;7.60;70.40;;;;;;2225288;56;20989;-74
2020/12/06 23:46:22;;;;;;;2.20;1.10;;;7.60;70.50;;;;;;2226519;56;21026;-74
2020/12/06 23:48:49;;;;;;;2.60;1.10;;;7.60;70.50;;;;;;2461556;56;20980;-74
2020/12/06 23:51:17;;;;;;;2.60;1.17;;;7.50;70.50;;;;;;2452938;55;20967;-74
2020/12/06 23:53:43;;;;;;;2.40;1.10;;;7.50;70.70;;;;;;2440968;55;21039;-74
2020/12/06 23:56:10;;;;;;;1.35;0.65;;;7.50;70.70;;;;;;2232062;56;21527;-74
2020/12/06 23:58:37;;;;;;;2.00;0.90;;;7.40;70.60;;;;;;2453036;55;20999;-74
